METAR Formatted Surface Weather Observation
Issued by NWS

Home | Current Version | Previous Version | Text Only | Print | Product List | Glossary On
Versions: 1 2 3 4 5 6
202
SAUS41 KGYX 291656
MTRNKT
METAR KNKT 291654Z 06010KT 10SM BKN019 19/12 A3009 RMK AO2 SLP184
T01890122



USA.gov is the U.S. government's official web portal to all federal, state and local government web resources and services.